Manchaug, Massachusetts
Current Conditions -  °F | °C
As of 4:25 AM on Monday 24 Nov 2014 (Local Time) from KORH Reporting Station
Light Rain Light Rain  
Wind Chill: 39°   Ceiling: 200
Heat Index: 43°   Visibility: 0.5mi
Dew Point: 42°   Wind: 7mph
Humidity: 97%   Direction: 110°ESE
Pressure: 29.92"   Gusts: NA
Location:  42.09°N, 71.75°W
Report Text: KORH 240925Z AUTO 11006KT 1/2SM R11/1800V2600FT -RA FG VV002 06/06 A2992 RMK AO2 RAB02 P0003 T00610056 $
Loading
Personal Weather Stations






























Interactive Weather Map New forecast layout! Learn more

10-Day Weather Forecast

Advertisements
Track Severe Weather on mobile